createdAt,value
2023-05-06T00:08:15.232Z,100.00
2023-05-06T00:10:43.012Z,100.00
2023-05-06T00:13:24.838Z,100.00
2023-05-06T00:15:52.840Z,100.00
2023-05-06T00:18:22.354Z,100.00
2023-05-06T00:20:50.270Z,100.00
2023-05-06T00:23:19.764Z,100.00
2023-05-06T00:25:47.469Z,100.00
2023-05-06T00:28:15.137Z,100.00
2023-05-06T00:30:43.034Z,100.00
2023-05-06T00:33:10.839Z,100.00
2023-05-06T00:35:38.639Z,100.00
2023-05-06T00:38:11.331Z,100.00
2023-05-06T00:40:41.937Z,100.00
2023-05-06T00:43:10.411Z,100.00
2023-05-06T00:45:39.441Z,100.00
2023-05-06T00:48:08.328Z,100.00
2023-05-06T00:50:37.294Z,100.00
2023-05-06T00:53:06.760Z,100.00
2023-05-06T00:55:34.880Z,100.00
2023-05-06T00:58:04.367Z,100.00
2023-05-06T01:00:33.141Z,100.00
2023-05-06T01:03:00.967Z,100.00
2023-05-06T01:05:36.803Z,100.00
2023-05-06T01:08:12.014Z,100.00
2023-05-06T01:10:46.055Z,100.00
2023-05-06T01:13:22.136Z,100.00
2023-05-06T01:15:55.305Z,100.00
2023-05-06T01:18:26.524Z,100.00
2023-05-06T01:20:55.960Z,100.00
2023-05-06T01:23:25.027Z,100.00
2023-05-06T01:25:53.117Z,100.00
2023-05-06T01:28:20.815Z,100.00
2023-05-06T01:30:58.770Z,100.00
2023-05-06T01:33:36.575Z,100.00
2023-05-06T01:36:14.103Z,100.00
2023-05-06T01:38:52.219Z,100.00
2023-05-06T01:41:21.882Z,100.00
2023-05-06T01:43:50.462Z,100.00
2023-05-06T01:46:21.070Z,100.00
2023-05-06T01:48:53.868Z,100.00
2023-05-06T01:51:24.427Z,100.00
2023-05-06T01:53:53.711Z,100.00
2023-05-06T01:56:21.655Z,100.00
2023-05-06T01:58:49.804Z,100.00
2023-05-06T02:01:17.986Z,100.00
2023-05-06T02:03:46.633Z,100.00
2023-05-06T02:06:15.003Z,100.00
2023-05-06T02:08:43.069Z,100.00
2023-05-06T02:11:16.586Z,100.00
2023-05-06T02:13:45.157Z,100.00
2023-05-06T02:16:13.653Z,100.00
2023-05-06T02:18:42.411Z,100.00
2023-05-06T02:21:11.264Z,100.00
2023-05-06T02:23:38.944Z,100.00
2023-05-06T02:26:07.048Z,100.00
2023-05-06T02:28:36.152Z,100.00
2023-05-06T02:31:04.061Z,100.00
2023-05-06T02:33:31.762Z,100.00
2023-05-06T02:35:59.595Z,100.00
2023-05-06T02:38:27.348Z,100.00
2023-05-06T02:40:55.010Z,100.00
2023-05-06T02:43:23.673Z,100.00
2023-05-06T02:45:52.981Z,100.00
2023-05-06T02:48:20.715Z,100.00
2023-05-06T02:50:48.474Z,100.00
2023-05-06T02:53:16.222Z,100.00
2023-05-06T02:55:43.924Z,100.00
2023-05-06T02:58:11.624Z,100.00
2023-05-06T03:00:39.356Z,100.00
2023-05-06T03:03:08.685Z,100.00
2023-05-06T03:05:36.706Z,100.00
2023-05-06T03:08:04.438Z,100.00
2023-05-06T03:10:33.887Z,100.00
2023-05-06T03:13:02.238Z,100.00
2023-05-06T03:15:31.982Z,100.00
2023-05-06T03:18:00.179Z,100.00
2023-05-06T03:20:29.999Z,100.00
2023-05-06T03:22:59.877Z,100.00
2023-05-06T03:25:27.680Z,100.00
2023-05-06T03:27:56.701Z,100.00
2023-05-06T03:30:24.729Z,100.00
2023-05-06T03:32:57.188Z,100.00
2023-05-06T03:35:32.036Z,100.00
2023-05-06T03:38:01.603Z,100.00
2023-05-06T03:40:37.330Z,100.00
2023-05-06T03:43:05.501Z,100.00
2023-05-06T03:45:34.055Z,100.00
2023-05-06T03:48:04.358Z,100.00
2023-05-06T03:50:35.781Z,100.00
2023-05-06T03:53:03.686Z,100.00
2023-05-06T03:55:34.755Z,100.00
2023-05-06T03:58:02.689Z,100.00
2023-05-06T04:00:30.871Z,100.00
2023-05-06T04:02:58.672Z,100.00
2023-05-06T04:05:34.719Z,100.00
2023-05-06T04:08:03.245Z,100.00
2023-05-06T04:10:31.442Z,100.00
2023-05-06T04:13:06.270Z,100.00
2023-05-06T04:15:41.449Z,100.00
2023-05-06T04:18:12.310Z,100.00
2023-05-06T04:20:44.025Z,100.00
2023-05-06T04:23:12.171Z,100.00
2023-05-06T04:25:42.604Z,100.00
2023-05-06T04:28:10.642Z,100.00
2023-05-06T04:30:39.218Z,100.00
2023-05-06T04:33:08.935Z,100.00
2023-05-06T04:35:37.748Z,100.00
2023-05-06T04:38:07.972Z,100.00
2023-05-06T04:40:36.503Z,100.00
2023-05-06T04:43:04.553Z,100.00
2023-05-06T04:45:34.557Z,100.00
2023-05-06T04:48:03.313Z,100.00
2023-05-06T04:50:33.209Z,100.00
2023-05-06T04:53:00.830Z,100.00
2023-05-06T04:55:30.090Z,100.00
2023-05-06T04:57:57.933Z,100.00
2023-05-06T05:00:27.424Z,100.00
2023-05-06T05:02:55.653Z,100.00
2023-05-06T05:05:24.849Z,100.00
2023-05-06T05:07:54.228Z,100.00
2023-05-06T05:10:22.772Z,100.00
2023-05-06T05:12:53.677Z,100.00
2023-05-06T05:15:22.069Z,100.00
2023-05-06T05:17:51.773Z,100.00
2023-05-06T05:20:22.480Z,100.00
2023-05-06T05:22:50.212Z,100.00
2023-05-06T05:25:18.093Z,100.00
2023-05-06T05:27:47.060Z,100.00
2023-05-06T05:30:16.452Z,100.00
2023-05-06T05:32:44.750Z,100.00
2023-05-06T05:35:12.815Z,100.00
2023-05-06T05:37:43.142Z,100.00
2023-05-06T05:40:11.690Z,100.00
2023-05-06T05:42:42.050Z,100.00
2023-05-06T05:45:21.166Z,100.00
2023-05-06T05:47:49.448Z,100.00
2023-05-06T05:50:17.837Z,100.00
2023-05-06T05:52:46.834Z,100.00
2023-05-06T05:55:14.658Z,100.00
2023-05-06T05:57:45.990Z,100.00
2023-05-06T06:00:16.122Z,100.00
2023-05-06T06:02:48.375Z,100.00
2023-05-06T06:05:21.321Z,100.00
2023-05-06T06:07:49.005Z,100.00
2023-05-06T06:10:16.899Z,100.00
2023-05-06T06:12:48.086Z,100.00
2023-05-06T06:15:21.948Z,100.00
2023-05-06T06:17:59.423Z,100.00
2023-05-06T06:20:31.834Z,100.00
2023-05-06T06:22:59.676Z,100.00
2023-05-06T06:25:27.496Z,100.00
2023-05-06T06:27:56.225Z,100.00
2023-05-06T06:30:25.879Z,100.00
2023-05-06T06:32:56.507Z,100.00
2023-05-06T06:35:25.150Z,100.00
2023-05-06T06:37:52.852Z,100.00
2023-05-06T06:40:20.857Z,100.00
2023-05-06T06:42:49.436Z,100.00
2023-05-06T06:45:40.417Z,100.00
2023-05-06T06:48:09.889Z,100.00
2023-05-06T06:50:37.906Z,100.00
2023-05-06T06:54:20.870Z,100.00
2023-05-06T06:56:50.905Z,100.00
2023-05-06T06:59:18.815Z,100.00
2023-05-06T07:01:46.522Z,100.00
2023-05-06T07:04:15.956Z,100.00
2023-05-06T07:06:43.652Z,100.00
2023-05-06T07:09:12.031Z,100.00
2023-05-06T07:11:39.960Z,100.00
2023-05-06T07:14:08.250Z,100.00
2023-05-06T07:16:36.433Z,100.00
2023-05-06T07:19:04.265Z,100.00
2023-05-06T07:21:33.986Z,100.00
2023-05-06T07:24:01.998Z,100.00
2023-05-06T07:26:29.824Z,100.00
2023-05-06T07:28:57.621Z,100.00
2023-05-06T07:31:25.362Z,100.00
2023-05-06T07:33:53.257Z,100.00
2023-05-06T07:36:21.612Z,100.00
2023-05-06T07:38:51.072Z,100.00
2023-05-06T07:41:18.842Z,100.00
2023-05-06T07:43:46.974Z,100.00
2023-05-06T07:46:14.924Z,100.00
2023-05-06T07:48:43.293Z,100.00
2023-05-06T07:51:11.729Z,100.00
2023-05-06T07:53:40.438Z,100.00
2023-05-06T07:56:09.858Z,100.00
2023-05-06T07:58:37.704Z,100.00
2023-05-06T08:01:06.118Z,100.00
2023-05-06T08:03:35.558Z,100.00
2023-05-06T08:06:03.482Z,100.00
2023-05-06T08:08:31.680Z,100.00
2023-05-06T08:10:59.969Z,100.00
2023-05-06T08:13:30.404Z,99.38
2023-05-06T08:15:58.399Z,100.00
2023-05-06T08:18:26.180Z,99.80
2023-05-06T08:20:54.241Z,95.00
2023-05-06T08:23:22.020Z,94.85
2023-05-06T08:25:50.549Z,94.53
2023-05-06T08:28:18.719Z,96.46
2023-05-06T08:30:48.639Z,97.13
2023-05-06T08:33:16.511Z,97.99
2023-05-06T08:35:44.796Z,91.88
2023-05-06T08:38:12.528Z,88.08
2023-05-06T08:40:43.989Z,88.31
2023-05-06T08:43:14.700Z,89.85
2023-05-06T08:45:43.073Z,87.16
2023-05-06T08:48:13.004Z,88.70
2023-05-06T08:50:44.225Z,86.06
2023-05-06T08:53:13.256Z,85.99
2023-05-06T08:55:42.713Z,87.49
2023-05-06T08:58:13.622Z,88.77
2023-05-06T09:00:41.688Z,89.36
2023-05-06T09:03:10.120Z,84.02
2023-05-06T09:05:39.485Z,87.66
2023-05-06T09:08:07.273Z,84.44
2023-05-06T09:10:44.518Z,82.17
2023-05-06T09:13:13.890Z,83.73
2023-05-06T09:15:42.358Z,81.51
2023-05-06T09:18:10.775Z,79.97
2023-05-06T09:20:42.497Z,81.13
2023-05-06T09:23:12.024Z,76.82
2023-05-06T09:25:40.568Z,79.01
2023-05-06T09:28:10.386Z,76.96
2023-05-06T09:30:40.105Z,80.91
2023-05-06T09:33:08.098Z,76.84
2023-05-06T09:35:42.314Z,78.12
2023-05-06T09:38:10.961Z,75.14
2023-05-06T09:40:40.078Z,79.86
2023-05-06T09:43:08.878Z,80.00
2023-05-06T09:45:37.610Z,77.21
2023-05-06T09:48:06.058Z,79.22
2023-05-06T09:50:34.351Z,76.72
2023-05-06T09:53:05.907Z,74.95
2023-05-06T09:55:34.852Z,72.88
2023-05-06T09:58:04.633Z,72.20
2023-05-06T10:00:32.904Z,71.32
2023-05-06T10:03:01.978Z,69.17
2023-05-06T10:05:31.159Z,69.23
2023-05-06T10:08:00.404Z,68.89
2023-05-06T10:10:31.107Z,71.31
2023-05-06T10:12:59.204Z,71.55
2023-05-06T10:15:27.253Z,68.15
2023-05-06T10:17:56.549Z,68.96
2023-05-06T10:20:26.173Z,68.92
2023-05-06T10:23:05.208Z,71.60
2023-05-06T10:25:38.265Z,69.11
2023-05-06T10:28:07.887Z,66.23
2023-05-06T10:30:41.962Z,68.11
2023-05-06T10:33:12.340Z,68.22
2023-05-06T10:35:49.153Z,71.24
2023-05-06T10:38:21.651Z,68.34
2023-05-06T10:40:51.656Z,64.25
2023-05-06T10:43:25.288Z,63.33
2023-05-06T10:46:05.292Z,62.91
2023-05-06T10:48:34.025Z,63.64
2023-05-06T10:51:29.401Z,64.00
2023-05-06T10:54:05.626Z,64.82
2023-05-06T10:56:36.598Z,66.71
2023-05-06T10:59:08.812Z,62.76
2023-05-06T11:01:37.427Z,62.24
2023-05-06T11:04:09.921Z,59.89
2023-05-06T11:06:42.840Z,56.07
2023-05-06T11:09:18.382Z,56.36
2023-05-06T11:12:00.315Z,59.75
2023-05-06T11:14:29.757Z,60.46
2023-05-06T11:16:59.517Z,58.75
2023-05-06T11:19:29.969Z,57.83
2023-05-06T11:21:58.619Z,60.08
2023-05-06T11:24:28.358Z,59.27
2023-05-06T11:26:59.264Z,60.74
2023-05-06T11:29:27.734Z,62.20
2023-05-06T11:31:55.466Z,56.32
2023-05-06T11:34:27.943Z,57.50
2023-05-06T11:37:00.800Z,56.30
2023-05-06T11:39:30.445Z,60.09
2023-05-06T11:42:02.711Z,58.26
2023-05-06T11:44:32.070Z,66.64
2023-05-06T11:47:01.463Z,66.66
2023-05-06T11:49:29.509Z,62.32
2023-05-06T11:51:58.214Z,62.50
2023-05-06T11:54:27.607Z,56.41
2023-05-06T11:56:57.247Z,60.21
2023-05-06T11:59:31.803Z,55.52
2023-05-06T12:02:01.362Z,57.93
2023-05-06T12:04:29.648Z,58.85
2023-05-06T12:06:58.057Z,59.21
2023-05-06T12:09:26.341Z,58.34
2023-05-06T12:11:55.015Z,57.37
2023-05-06T12:14:23.109Z,56.57
2023-05-06T12:16:54.100Z,55.55
2023-05-06T12:19:23.905Z,60.39
2023-05-06T12:21:52.356Z,61.87
2023-05-06T12:24:28.068Z,59.90
2023-05-06T12:26:56.121Z,61.98
2023-05-06T12:29:24.637Z,59.44
2023-05-06T12:32:08.816Z,57.98
2023-05-06T12:34:41.048Z,59.49
2023-05-06T12:37:09.701Z,62.24
2023-05-06T12:39:39.082Z,65.31
2023-05-06T12:42:08.071Z,63.68
2023-05-06T12:44:37.590Z,65.29
2023-05-06T12:47:08.596Z,65.13
2023-05-06T12:49:47.834Z,62.85
2023-05-06T12:52:16.028Z,60.33
2023-05-06T12:54:44.408Z,60.32
2023-05-06T12:57:12.949Z,62.72
2023-05-06T12:59:41.327Z,63.71
2023-05-06T13:02:12.981Z,61.68
2023-05-06T13:04:42.393Z,59.48
2023-05-06T13:07:10.096Z,62.59
2023-05-06T13:09:38.122Z,64.00
2023-05-06T13:12:07.231Z,58.53
2023-05-06T13:14:36.940Z,62.50
2023-05-06T13:17:07.259Z,61.31
2023-05-06T13:19:37.148Z,57.21
2023-05-06T13:22:05.150Z,58.53
2023-05-06T13:24:33.757Z,57.51
2023-05-06T13:27:02.157Z,61.37
2023-05-06T13:29:30.495Z,61.45
2023-05-06T13:31:58.386Z,59.26
2023-05-06T13:34:26.200Z,57.28
2023-05-06T13:36:57.110Z,60.77
2023-05-06T13:39:25.112Z,60.09
2023-05-06T13:41:54.072Z,57.01
2023-05-06T13:44:22.218Z,60.82
2023-05-06T13:46:50.496Z,63.92
2023-05-06T13:49:19.593Z,62.86
2023-05-06T13:51:47.242Z,56.76
2023-05-06T13:54:16.405Z,57.28
2023-05-06T13:56:44.901Z,59.50
2023-05-06T13:59:13.917Z,57.51
2023-05-06T14:01:43.021Z,56.55
2023-05-06T14:04:10.830Z,56.00
2023-05-06T14:06:39.133Z,60.51
2023-05-06T14:09:06.795Z,57.69
2023-05-06T14:11:35.984Z,55.06
2023-05-06T14:14:05.254Z,56.15
2023-05-06T14:16:33.747Z,57.44
2023-05-06T14:19:01.431Z,56.09
2023-05-06T14:21:29.109Z,55.37
2023-05-06T14:23:56.986Z,53.21
2023-05-06T14:26:24.836Z,58.28
2023-05-06T14:28:53.800Z,56.66
2023-05-06T14:31:21.686Z,56.71
2023-05-06T14:33:49.894Z,58.89
2023-05-06T14:36:19.639Z,58.42
2023-05-06T14:38:47.315Z,55.16
2023-05-06T14:41:14.908Z,58.67
2023-05-06T14:43:42.602Z,54.36
2023-05-06T14:46:11.876Z,54.35
2023-05-06T14:48:39.695Z,55.04
2023-05-06T14:51:07.924Z,49.28
2023-05-06T14:53:35.670Z,50.72
2023-05-06T14:56:03.397Z,50.77
2023-05-06T14:58:31.924Z,49.84
2023-05-06T15:00:59.760Z,51.85
2023-05-06T15:03:29.151Z,48.90
2023-05-06T15:05:57.043Z,53.73
2023-05-06T15:08:26.274Z,53.83
2023-05-06T15:10:54.911Z,54.13
2023-05-06T15:13:22.711Z,50.28
2023-05-06T15:15:50.772Z,50.37
2023-05-06T15:18:18.501Z,49.79
2023-05-06T15:20:47.801Z,53.32
2023-05-06T15:23:16.024Z,51.55
2023-05-06T15:25:43.708Z,52.73
2023-05-06T15:28:11.776Z,54.01
2023-05-06T15:30:40.124Z,50.39
2023-05-06T15:33:09.335Z,54.45
2023-05-06T15:35:37.421Z,52.46
2023-05-06T15:38:06.628Z,51.36
2023-05-06T15:40:35.587Z,50.64
2023-05-06T15:43:05.226Z,49.65
2023-05-06T15:45:33.111Z,55.04
2023-05-06T15:48:01.384Z,57.55
2023-05-06T15:50:33.893Z,56.58
2023-05-06T15:53:02.868Z,56.91
2023-05-06T15:55:35.212Z,54.77
2023-05-06T15:58:09.233Z,57.59
2023-05-06T16:00:37.566Z,54.93
2023-05-06T16:03:07.970Z,58.86
2023-05-06T16:05:38.420Z,58.78
2023-05-06T16:08:07.085Z,62.48
2023-05-06T16:10:37.953Z,57.27
2023-05-06T16:13:06.233Z,62.39
2023-05-06T16:15:35.330Z,60.36
2023-05-06T16:18:03.154Z,58.25
2023-05-06T16:20:32.523Z,54.83
2023-05-06T16:23:00.558Z,59.89
2023-05-06T16:25:28.529Z,54.78
2023-05-06T16:27:58.529Z,60.87
2023-05-06T16:30:27.145Z,57.81
2023-05-06T16:32:55.831Z,60.32
2023-05-06T16:35:23.620Z,59.21
2023-05-06T16:37:51.389Z,60.26
2023-05-06T16:40:21.812Z,60.47
2023-05-06T16:42:50.099Z,61.65
2023-05-06T16:45:19.615Z,59.13
2023-05-06T16:47:48.212Z,59.22
2023-05-06T16:50:16.111Z,61.37
2023-05-06T16:52:43.765Z,61.63
2023-05-06T16:55:11.519Z,61.86
2023-05-06T16:57:39.159Z,61.35
2023-05-06T17:00:11.739Z,62.99
2023-05-06T17:02:41.549Z,63.23
2023-05-06T17:05:09.563Z,62.93
2023-05-06T17:07:37.548Z,64.21
2023-05-06T17:10:05.958Z,64.63
2023-05-06T17:12:33.889Z,64.21
2023-05-06T17:15:01.621Z,64.71
2023-05-06T17:17:29.648Z,64.16
2023-05-06T17:19:59.327Z,66.32
2023-05-06T17:22:27.114Z,64.18
2023-05-06T17:24:54.906Z,64.63
2023-05-06T17:27:22.710Z,63.88
2023-05-06T17:29:50.832Z,65.40
2023-05-06T17:32:19.878Z,65.21
2023-05-06T17:34:47.734Z,66.70
2023-05-06T17:37:16.807Z,65.96
2023-05-06T17:39:46.253Z,67.61
2023-05-06T17:42:14.044Z,65.58
2023-05-06T17:44:42.540Z,66.26
2023-05-06T17:47:11.224Z,67.29
2023-05-06T17:49:38.984Z,66.19
2023-05-06T17:52:06.764Z,67.55
2023-05-06T17:54:36.501Z,67.37
2023-05-06T17:57:04.374Z,68.01
2023-05-06T17:59:33.594Z,66.89
2023-05-06T18:02:01.490Z,68.13
2023-05-06T18:04:29.400Z,66.89
2023-05-06T18:06:57.206Z,67.16
2023-05-06T18:09:25.635Z,67.30
2023-05-06T18:11:54.946Z,67.75
2023-05-06T18:14:22.690Z,69.17
2023-05-06T18:16:51.068Z,68.48
2023-05-06T18:19:18.943Z,68.51
2023-05-06T18:21:46.771Z,70.35
2023-05-06T18:24:16.345Z,68.08
2023-05-06T18:26:46.176Z,68.46
2023-05-06T18:29:15.996Z,69.22
2023-05-06T18:31:43.993Z,69.70
2023-05-06T18:34:11.861Z,69.99
2023-05-06T18:36:39.891Z,70.78
2023-05-06T18:39:07.959Z,70.58
2023-05-06T18:41:35.630Z,71.63
2023-05-06T18:44:04.482Z,71.90
2023-05-06T18:46:33.795Z,72.78
2023-05-06T18:49:01.906Z,72.09
2023-05-06T18:51:30.126Z,72.76
2023-05-06T18:53:57.920Z,71.51
2023-05-06T18:56:25.957Z,70.74
2023-05-06T18:58:53.791Z,71.28
2023-05-06T19:01:22.134Z,71.80
2023-05-06T19:03:51.704Z,72.31
2023-05-06T19:06:19.424Z,72.94
2023-05-06T19:08:47.133Z,72.68
2023-05-06T19:11:16.425Z,72.15
2023-05-06T19:13:44.815Z,72.44
2023-05-06T19:16:12.633Z,71.45
2023-05-06T19:18:40.593Z,71.06
2023-05-06T19:21:11.104Z,71.88
2023-05-06T19:23:39.031Z,71.23
2023-05-06T19:26:07.594Z,71.41
2023-05-06T19:28:35.249Z,72.36
2023-05-06T19:31:08.002Z,72.26
2023-05-06T19:33:35.985Z,73.91
2023-05-06T19:36:04.066Z,73.56
2023-05-06T19:38:33.316Z,73.70
2023-05-06T19:41:01.082Z,72.93
2023-05-06T19:43:28.965Z,74.64
2023-05-06T19:45:56.915Z,75.97
2023-05-06T19:48:24.762Z,74.51
2023-05-06T19:50:54.070Z,74.95
2023-05-06T19:53:23.886Z,75.45
2023-05-06T19:55:55.545Z,75.81
2023-05-06T19:58:23.279Z,75.46
2023-05-06T20:00:51.012Z,75.60
2023-05-06T20:03:18.874Z,76.96
2023-05-06T20:05:46.590Z,77.87
2023-05-06T20:08:15.378Z,77.70
2023-05-06T20:10:43.093Z,78.61
2023-05-06T20:13:12.435Z,79.76
2023-05-06T20:15:40.654Z,80.60
2023-05-06T20:18:08.373Z,80.16
2023-05-06T20:20:36.380Z,79.53
2023-05-06T20:23:04.594Z,81.12
2023-05-06T20:25:32.631Z,80.52
2023-05-06T20:28:01.841Z,80.27
2023-05-06T20:30:31.131Z,79.18
2023-05-06T20:32:59.359Z,78.76
2023-05-06T20:35:27.402Z,79.26
2023-05-06T20:37:55.697Z,81.29
2023-05-06T20:40:23.580Z,80.76
2023-05-06T20:42:51.747Z,81.11
2023-05-06T20:45:19.372Z,81.42
2023-05-06T20:47:49.030Z,81.84
2023-05-06T20:50:18.597Z,81.45
2023-05-06T20:52:48.060Z,82.45
2023-05-06T20:55:15.957Z,82.44
2023-05-06T20:57:44.627Z,82.64
2023-05-06T21:00:13.457Z,82.75
2023-05-06T21:02:42.309Z,83.10
2023-05-06T21:05:12.292Z,83.61
2023-05-06T21:07:41.247Z,83.52
2023-05-06T21:10:12.298Z,84.31
2023-05-06T21:12:40.537Z,86.18
2023-05-06T21:15:09.692Z,87.57
2023-05-06T21:17:37.679Z,87.44
2023-05-06T21:20:06.530Z,87.97
2023-05-06T21:22:35.937Z,88.02
2023-05-06T21:25:05.124Z,88.97
2023-05-06T21:27:33.090Z,89.71
2023-05-06T21:30:01.099Z,89.78
2023-05-06T21:32:32.951Z,89.74
2023-05-06T21:35:03.206Z,90.17
2023-05-06T21:37:31.043Z,91.17
2023-05-06T21:40:02.616Z,92.10
2023-05-06T21:42:30.983Z,92.74
2023-05-06T21:44:58.752Z,93.78
2023-05-06T21:47:26.553Z,94.38
2023-05-06T21:49:55.060Z,94.14
2023-05-06T21:52:22.734Z,94.51
2023-05-06T21:54:50.420Z,95.33
2023-05-06T21:57:20.329Z,95.45
2023-05-06T21:59:48.191Z,96.29
2023-05-06T22:02:16.134Z,96.10
2023-05-06T22:04:44.056Z,95.30
2023-05-06T22:07:11.787Z,95.86
2023-05-06T22:09:39.447Z,95.46
2023-05-06T22:12:09.104Z,95.74
2023-05-06T22:14:41.578Z,97.17
2023-05-06T22:17:11.131Z,98.39
2023-05-06T22:19:40.739Z,98.69
2023-05-06T22:22:09.052Z,98.00
2023-05-06T22:24:36.751Z,99.46
2023-05-06T22:27:04.689Z,100.00
2023-05-06T22:29:34.918Z,100.00
2023-05-06T22:32:04.169Z,99.83
2023-05-06T22:34:31.896Z,98.99
2023-05-06T22:37:00.969Z,98.42
2023-05-06T22:39:29.579Z,98.11
2023-05-06T22:41:57.340Z,99.42
2023-05-06T22:44:25.245Z,99.20
2023-05-06T22:46:52.922Z,99.10
2023-05-06T22:49:22.173Z,98.77
2023-05-06T22:51:50.364Z,99.46
2023-05-06T22:54:18.133Z,99.69
2023-05-06T22:56:45.992Z,100.00
2023-05-06T22:59:13.751Z,99.76
2023-05-06T23:01:41.537Z,99.17
2023-05-06T23:04:09.893Z,99.73
2023-05-06T23:06:39.930Z,98.60
2023-05-06T23:09:07.937Z,98.19
2023-05-06T23:11:35.632Z,98.89
2023-05-06T23:14:04.131Z,98.40
2023-05-06T23:16:31.858Z,98.32
2023-05-06T23:19:00.654Z,98.59
2023-05-06T23:21:28.355Z,99.46
2023-05-06T23:23:57.419Z,99.94
2023-05-06T23:26:25.356Z,100.00
2023-05-06T23:28:53.581Z,100.00
2023-05-06T23:31:21.819Z,100.00
2023-05-06T23:33:49.760Z,100.00
2023-05-06T23:36:17.696Z,100.00
2023-05-06T23:38:45.608Z,100.00
2023-05-06T23:41:15.226Z,100.00
2023-05-06T23:43:42.994Z,100.00
2023-05-06T23:46:10.912Z,100.00
2023-05-06T23:48:38.972Z,100.00
2023-05-06T23:51:07.145Z,100.00
2023-05-06T23:53:36.022Z,100.00
2023-05-06T23:56:04.062Z,100.00
2023-05-06T23:58:33.470Z,100.00
